createdAt,value
2022-11-29T00:16:32.054Z,283
2022-11-29T00:36:32.030Z,283
2022-11-29T00:56:32.064Z,284
2022-11-29T01:16:32.094Z,285
2022-11-29T01:36:32.050Z,288
2022-11-29T01:56:32.058Z,286
2022-11-29T02:36:32.075Z,291
2022-11-29T02:56:32.098Z,295
2022-11-29T03:16:32.083Z,292
2022-11-29T03:36:32.085Z,287
2022-11-29T03:56:32.088Z,287
2022-11-29T04:16:32.336Z,289
2022-11-29T04:36:32.107Z,290
2022-11-29T04:56:32.104Z,287
2022-11-29T05:16:32.148Z,289
2022-11-29T05:36:32.143Z,286
2022-11-29T05:56:32.128Z,290
2022-11-29T06:16:32.251Z,290
2022-11-29T06:36:32.143Z,291
2022-11-29T06:56:32.169Z,288
2022-11-29T07:16:31.712Z,287
2022-11-29T07:56:31.691Z,287
2022-11-29T08:16:32.244Z,286
2022-11-29T08:36:32.202Z,282
2022-11-29T09:36:32.221Z,286
2022-11-29T09:56:32.270Z,286
2022-11-29T10:16:32.075Z,284
2022-11-29T10:36:32.217Z,283
2022-11-29T10:56:32.230Z,282
2022-11-29T11:16:36.988Z,280
2022-11-29T11:36:32.251Z,279
2022-11-29T11:56:32.053Z,278
2022-11-29T12:16:32.064Z,281
2022-11-29T12:36:32.261Z,285
2022-11-29T12:56:32.280Z,280
2022-11-29T13:16:31.865Z,284
2022-11-29T13:36:32.298Z,278
2022-11-29T14:16:32.103Z,279
2022-11-29T14:36:32.309Z,278
2022-11-29T14:56:32.332Z,279
2022-11-29T15:16:32.389Z,274
2022-11-29T15:36:32.341Z,277
2022-11-29T15:56:31.832Z,282
2022-11-29T16:16:32.373Z,282
2022-11-29T16:36:32.352Z,282
2022-11-29T16:56:32.386Z,282
2022-11-29T17:16:32.402Z,276
2022-11-29T17:36:32.474Z,277
2022-11-29T17:56:32.383Z,280
2022-11-29T18:16:32.542Z,278
2022-11-29T18:36:32.377Z,278
2022-11-29T18:56:32.416Z,275
2022-11-29T19:16:32.415Z,275
2022-11-29T19:36:32.230Z,278
2022-11-29T19:56:32.432Z,275
2022-11-29T20:16:32.453Z,278
2022-11-29T20:36:32.418Z,273
2022-11-29T20:56:32.464Z,277
2022-11-29T21:16:32.543Z,274
2022-11-29T21:36:32.463Z,273
2022-11-29T21:56:32.479Z,276
2022-11-29T22:16:32.572Z,275
2022-11-29T22:36:32.494Z,273
2022-11-29T22:56:32.281Z,274
2022-11-29T23:16:32.559Z,274
2022-11-29T23:36:32.491Z,274
2022-11-29T23:56:32.515Z,276
